sensor_id;sensor_type;location;lat;lon;timestamp;P1;durP1;ratioP1;P2;durP2;ratioP2
15240;SDS011;7723;52.170;9.978;2022-07-30T00:00:23;5.25;;;3.38;;
15240;SDS011;7723;52.170;9.978;2022-07-30T00:02:51;5.82;;;3.45;;
15240;SDS011;7723;52.170;9.978;2022-07-30T00:05:19;5.28;;;2.85;;
15240;SDS011;7723;52.170;9.978;2022-07-30T00:07:47;3.95;;;3.58;;
15240;SDS011;7723;52.170;9.978;2022-07-30T00:10:14;3.72;;;3.25;;
15240;SDS011;7723;52.170;9.978;2022-07-30T00:12:41;4.70;;;3.53;;
15240;SDS011;7723;52.170;9.978;2022-07-30T00:15:09;5.75;;;3.67;;
15240;SDS011;7723;52.170;9.978;2022-07-30T00:17:36;3.03;;;2.72;;
15240;SDS011;7723;52.170;9.978;2022-07-30T00:20:04;5.85;;;3.78;;
15240;SDS011;7723;52.170;9.978;2022-07-30T00:22:33;3.70;;;3.38;;
15240;SDS011;7723;52.170;9.978;2022-07-30T00:25:00;4.07;;;3.15;;
15240;SDS011;7723;52.170;9.978;2022-07-30T00:27:27;4.00;;;3.58;;
15240;SDS011;7723;52.170;9.978;2022-07-30T00:29:58;7.63;;;4.03;;
15240;SDS011;7723;52.170;9.978;2022-07-30T00:32:26;3.70;;;3.30;;
15240;SDS011;7723;52.170;9.978;2022-07-30T00:34:53;3.67;;;3.38;;
15240;SDS011;7723;52.170;9.978;2022-07-30T00:37:20;4.00;;;3.60;;
15240;SDS011;7723;52.170;9.978;2022-07-30T00:39:49;3.80;;;3.30;;
15240;SDS011;7723;52.170;9.978;2022-07-30T00:42:16;3.60;;;3.05;;
15240;SDS011;7723;52.170;9.978;2022-07-30T00:44:49;4.63;;;3.28;;
15240;SDS011;7723;52.170;9.978;2022-07-30T00:47:17;4.70;;;3.78;;
15240;SDS011;7723;52.170;9.978;2022-07-30T00:49:44;3.80;;;3.25;;
15240;SDS011;7723;52.170;9.978;2022-07-30T00:52:12;5.25;;;3.70;;
15240;SDS011;7723;52.170;9.978;2022-07-30T00:54:39;4.40;;;3.58;;
15240;SDS011;7723;52.170;9.978;2022-07-30T00:57:08;4.03;;;3.63;;
15240;SDS011;7723;52.170;9.978;2022-07-30T00:59:35;4.82;;;3.58;;
15240;SDS011;7723;52.170;9.978;2022-07-30T01:02:02;5.80;;;4.00;;
15240;SDS011;7723;52.170;9.978;2022-07-30T01:04:29;9.80;;;3.78;;
15240;SDS011;7723;52.170;9.978;2022-07-30T01:06:57;3.90;;;3.33;;
15240;SDS011;7723;52.170;9.978;2022-07-30T01:09:24;5.25;;;3.38;;
15240;SDS011;7723;52.170;9.978;2022-07-30T01:11:52;4.25;;;3.85;;
15240;SDS011;7723;52.170;9.978;2022-07-30T01:14:21;3.92;;;3.50;;
15240;SDS011;7723;52.170;9.978;2022-07-30T01:16:49;3.60;;;3.30;;
15240;SDS011;7723;52.170;9.978;2022-07-30T01:19:18;4.60;;;3.53;;
15240;SDS011;7723;52.170;9.978;2022-07-30T01:22:08;5.18;;;4.15;;
15240;SDS011;7723;52.170;9.978;2022-07-30T01:24:42;5.97;;;4.30;;
15240;SDS011;7723;52.170;9.978;2022-07-30T01:27:13;6.57;;;4.40;;
15240;SDS011;7723;52.170;9.978;2022-07-30T01:29:43;5.25;;;3.92;;
15240;SDS011;7723;52.170;9.978;2022-07-30T01:32:12;5.63;;;4.10;;
15240;SDS011;7723;52.170;9.978;2022-07-30T01:34:42;5.53;;;3.67;;
15240;SDS011;7723;52.170;9.978;2022-07-30T01:37:11;5.75;;;4.15;;
15240;SDS011;7723;52.170;9.978;2022-07-30T01:39:40;5.45;;;3.72;;
15240;SDS011;7723;52.170;9.978;2022-07-30T01:42:08;5.68;;;3.80;;
15240;SDS011;7723;52.170;9.978;2022-07-30T01:44:38;4.15;;;3.75;;
15240;SDS011;7723;52.170;9.978;2022-07-30T01:47:07;5.03;;;4.40;;
15240;SDS011;7723;52.170;9.978;2022-07-30T01:49:36;5.63;;;3.95;;
15240;SDS011;7723;52.170;9.978;2022-07-30T01:52:05;4.75;;;3.83;;
15240;SDS011;7723;52.170;9.978;2022-07-30T01:54:34;5.20;;;4.10;;
15240;SDS011;7723;52.170;9.978;2022-07-30T01:57:04;6.30;;;4.30;;
15240;SDS011;7723;52.170;9.978;2022-07-30T01:59:33;4.85;;;4.35;;
15240;SDS011;7723;52.170;9.978;2022-07-30T02:02:03;4.75;;;4.22;;
15240;SDS011;7723;52.170;9.978;2022-07-30T02:04:31;5.90;;;5.00;;
15240;SDS011;7723;52.170;9.978;2022-07-30T02:06:59;6.22;;;5.00;;
15240;SDS011;7723;52.170;9.978;2022-07-30T02:09:33;7.65;;;4.65;;
15240;SDS011;7723;52.170;9.978;2022-07-30T02:12:03;7.25;;;4.55;;
15240;SDS011;7723;52.170;9.978;2022-07-30T02:14:52;6.13;;;5.20;;
15240;SDS011;7723;52.170;9.978;2022-07-30T02:17:25;6.38;;;5.00;;
15240;SDS011;7723;52.170;9.978;2022-07-30T02:19:57;7.57;;;4.78;;
15240;SDS011;7723;52.170;9.978;2022-07-30T02:22:26;5.80;;;5.20;;
15240;SDS011;7723;52.170;9.978;2022-07-30T02:24:56;6.88;;;5.57;;
15240;SDS011;7723;52.170;9.978;2022-07-30T02:27:27;7.25;;;5.38;;
15240;SDS011;7723;52.170;9.978;2022-07-30T02:29:57;6.65;;;5.60;;
15240;SDS011;7723;52.170;9.978;2022-07-30T02:32:29;7.63;;;5.68;;
15240;SDS011;7723;52.170;9.978;2022-07-30T02:35:03;5.97;;;5.28;;
15240;SDS011;7723;52.170;9.978;2022-07-30T02:37:35;5.15;;;4.63;;
15240;SDS011;7723;52.170;9.978;2022-07-30T02:40:05;7.90;;;5.75;;
15240;SDS011;7723;52.170;9.978;2022-07-30T02:42:34;6.07;;;5.45;;
15240;SDS011;7723;52.170;9.978;2022-07-30T02:45:02;7.15;;;5.50;;
15240;SDS011;7723;52.170;9.978;2022-07-30T02:47:31;6.72;;;4.95;;
15240;SDS011;7723;52.170;9.978;2022-07-30T02:49:59;7.72;;;6.35;;
15240;SDS011;7723;52.170;9.978;2022-07-30T02:52:29;6.80;;;5.95;;
15240;SDS011;7723;52.170;9.978;2022-07-30T02:54:58;6.65;;;5.05;;
15240;SDS011;7723;52.170;9.978;2022-07-30T02:57:27;8.80;;;6.00;;
15240;SDS011;7723;52.170;9.978;2022-07-30T02:59:57;7.22;;;6.05;;
15240;SDS011;7723;52.170;9.978;2022-07-30T03:02:25;8.77;;;6.15;;
15240;SDS011;7723;52.170;9.978;2022-07-30T03:04:54;7.47;;;6.00;;
15240;SDS011;7723;52.170;9.978;2022-07-30T03:07:23;7.13;;;6.22;;
15240;SDS011;7723;52.170;9.978;2022-07-30T03:09:52;8.90;;;7.00;;
15240;SDS011;7723;52.170;9.978;2022-07-30T03:12:21;9.15;;;7.47;;
15240;SDS011;7723;52.170;9.978;2022-07-30T03:14:50;7.75;;;6.95;;
15240;SDS011;7723;52.170;9.978;2022-07-30T03:17:18;11.07;;;7.97;;
15240;SDS011;7723;52.170;9.978;2022-07-30T03:19:47;9.52;;;8.07;;
15240;SDS011;7723;52.170;9.978;2022-07-30T03:22:17;8.82;;;7.53;;
15240;SDS011;7723;52.170;9.978;2022-07-30T03:24:47;9.95;;;7.40;;
15240;SDS011;7723;52.170;9.978;2022-07-30T03:27:15;8.05;;;7.25;;
15240;SDS011;7723;52.170;9.978;2022-07-30T03:29:43;8.77;;;6.97;;
15240;SDS011;7723;52.170;9.978;2022-07-30T03:32:12;8.63;;;7.47;;
15240;SDS011;7723;52.170;9.978;2022-07-30T03:34:40;11.95;;;6.63;;
15240;SDS011;7723;52.170;9.978;2022-07-30T03:37:09;8.18;;;7.25;;
15240;SDS011;7723;52.170;9.978;2022-07-30T03:39:38;9.82;;;7.38;;
15240;SDS011;7723;52.170;9.978;2022-07-30T03:42:06;8.40;;;7.10;;
15240;SDS011;7723;52.170;9.978;2022-07-30T03:44:34;9.07;;;6.50;;
15240;SDS011;7723;52.170;9.978;2022-07-30T03:47:03;7.97;;;6.53;;
15240;SDS011;7723;52.170;9.978;2022-07-30T03:49:31;6.97;;;6.00;;
15240;SDS011;7723;52.170;9.978;2022-07-30T03:52:00;12.30;;;7.10;;
15240;SDS011;7723;52.170;9.978;2022-07-30T03:54:29;9.40;;;7.07;;
15240;SDS011;7723;52.170;9.978;2022-07-30T03:56:59;9.60;;;7.10;;
15240;SDS011;7723;52.170;9.978;2022-07-30T03:59:27;8.43;;;7.53;;
15240;SDS011;7723;52.170;9.978;2022-07-30T04:01:58;9.80;;;6.97;;
15240;SDS011;7723;52.170;9.978;2022-07-30T04:04:26;8.15;;;6.75;;
15240;SDS011;7723;52.170;9.978;2022-07-30T04:06:54;7.50;;;6.68;;
15240;SDS011;7723;52.170;9.978;2022-07-30T04:09:22;8.00;;;6.88;;
15240;SDS011;7723;52.170;9.978;2022-07-30T04:11:50;8.90;;;7.30;;
15240;SDS011;7723;52.170;9.978;2022-07-30T04:14:19;12.90;;;7.93;;
15240;SDS011;7723;52.170;9.978;2022-07-30T04:16:46;8.88;;;7.07;;
15240;SDS011;7723;52.170;9.978;2022-07-30T04:19:18;10.20;;;7.82;;
15240;SDS011;7723;52.170;9.978;2022-07-30T04:21:51;9.90;;;7.68;;
15240;SDS011;7723;52.170;9.978;2022-07-30T04:24:19;9.23;;;7.97;;
15240;SDS011;7723;52.170;9.978;2022-07-30T04:26:49;8.73;;;7.85;;
15240;SDS011;7723;52.170;9.978;2022-07-30T04:29:19;9.32;;;7.28;;
15240;SDS011;7723;52.170;9.978;2022-07-30T04:31:46;8.52;;;7.40;;
15240;SDS011;7723;52.170;9.978;2022-07-30T04:34:14;8.98;;;7.18;;
15240;SDS011;7723;52.170;9.978;2022-07-30T04:36:42;8.30;;;7.45;;
15240;SDS011;7723;52.170;9.978;2022-07-30T04:39:09;13.85;;;7.90;;
15240;SDS011;7723;52.170;9.978;2022-07-30T04:41:36;9.10;;;8.10;;
15240;SDS011;7723;52.170;9.978;2022-07-30T04:44:04;10.70;;;8.70;;
15240;SDS011;7723;52.170;9.978;2022-07-30T04:46:33;10.45;;;8.38;;
15240;SDS011;7723;52.170;9.978;2022-07-30T04:49:00;11.18;;;9.05;;
15240;SDS011;7723;52.170;9.978;2022-07-30T04:51:28;12.40;;;9.77;;
15240;SDS011;7723;52.170;9.978;2022-07-30T04:53:59;9.57;;;8.50;;
15240;SDS011;7723;52.170;9.978;2022-07-30T04:56:28;9.40;;;8.20;;
15240;SDS011;7723;52.170;9.978;2022-07-30T04:58:57;9.88;;;7.70;;
15240;SDS011;7723;52.170;9.978;2022-07-30T05:01:26;11.00;;;7.55;;
15240;SDS011;7723;52.170;9.978;2022-07-30T05:04:00;9.32;;;8.15;;
15240;SDS011;7723;52.170;9.978;2022-07-30T05:06:29;10.73;;;8.18;;
15240;SDS011;7723;52.170;9.978;2022-07-30T05:08:58;9.90;;;8.02;;
15240;SDS011;7723;52.170;9.978;2022-07-30T05:11:25;9.00;;;7.85;;
15240;SDS011;7723;52.170;9.978;2022-07-30T05:13:53;11.10;;;8.20;;
15240;SDS011;7723;52.170;9.978;2022-07-30T05:16:21;9.18;;;7.97;;
15240;SDS011;7723;52.170;9.978;2022-07-30T05:18:48;8.82;;;7.63;;
15240;SDS011;7723;52.170;9.978;2022-07-30T05:21:17;12.23;;;7.97;;
15240;SDS011;7723;52.170;9.978;2022-07-30T05:23:44;10.10;;;7.38;;
15240;SDS011;7723;52.170;9.978;2022-07-30T05:26:12;8.82;;;7.32;;
15240;SDS011;7723;52.170;9.978;2022-07-30T05:28:39;11.43;;;8.70;;
15240;SDS011;7723;52.170;9.978;2022-07-30T05:31:06;9.57;;;7.80;;
15240;SDS011;7723;52.170;9.978;2022-07-30T05:33:34;9.23;;;7.15;;
15240;SDS011;7723;52.170;9.978;2022-07-30T05:36:01;9.77;;;7.28;;
15240;SDS011;7723;52.170;9.978;2022-07-30T05:38:30;10.13;;;7.93;;
15240;SDS011;7723;52.170;9.978;2022-07-30T05:40:57;8.95;;;7.72;;
15240;SDS011;7723;52.170;9.978;2022-07-30T05:43:24;10.57;;;7.82;;
15240;SDS011;7723;52.170;9.978;2022-07-30T05:45:51;8.10;;;7.28;;
15240;SDS011;7723;52.170;9.978;2022-07-30T05:48:19;8.05;;;6.93;;
15240;SDS011;7723;52.170;9.978;2022-07-30T05:50:46;9.25;;;7.32;;
15240;SDS011;7723;52.170;9.978;2022-07-30T05:53:13;7.85;;;7.05;;
15240;SDS011;7723;52.170;9.978;2022-07-30T05:55:42;8.43;;;6.93;;
15240;SDS011;7723;52.170;9.978;2022-07-30T05:58:09;8.25;;;7.32;;
15240;SDS011;7723;52.170;9.978;2022-07-30T06:00:36;7.22;;;6.53;;
15240;SDS011;7723;52.170;9.978;2022-07-30T06:03:04;8.52;;;7.68;;
15240;SDS011;7723;52.170;9.978;2022-07-30T06:05:31;9.30;;;7.35;;
15240;SDS011;7723;52.170;9.978;2022-07-30T06:07:58;9.80;;;7.85;;
15240;SDS011;7723;52.170;9.978;2022-07-30T06:10:26;9.48;;;7.75;;
15240;SDS011;7723;52.170;9.978;2022-07-30T06:12:55;12.95;;;8.48;;
15240;SDS011;7723;52.170;9.978;2022-07-30T06:15:22;9.25;;;7.32;;
15240;SDS011;7723;52.170;9.978;2022-07-30T06:17:49;10.63;;;6.50;;
15240;SDS011;7723;52.170;9.978;2022-07-30T06:20:17;9.80;;;6.60;;
15240;SDS011;7723;52.170;9.978;2022-07-30T06:22:45;7.85;;;6.70;;
15240;SDS011;7723;52.170;9.978;2022-07-30T06:25:13;9.07;;;6.45;;
15240;SDS011;7723;52.170;9.978;2022-07-30T06:27:40;8.93;;;6.22;;
15240;SDS011;7723;52.170;9.978;2022-07-30T06:30:09;6.40;;;5.35;;
15240;SDS011;7723;52.170;9.978;2022-07-30T06:32:36;8.02;;;5.50;;
15240;SDS011;7723;52.170;9.978;2022-07-30T06:35:04;7.45;;;6.05;;
15240;SDS011;7723;52.170;9.978;2022-07-30T06:37:32;5.75;;;5.13;;
15240;SDS011;7723;52.170;9.978;2022-07-30T06:40:00;5.53;;;5.03;;
15240;SDS011;7723;52.170;9.978;2022-07-30T06:42:27;6.78;;;4.63;;
15240;SDS011;7723;52.170;9.978;2022-07-30T06:44:54;7.32;;;5.43;;
15240;SDS011;7723;52.170;9.978;2022-07-30T06:47:23;7.07;;;5.28;;
15240;SDS011;7723;52.170;9.978;2022-07-30T06:49:53;5.03;;;4.63;;
15240;SDS011;7723;52.170;9.978;2022-07-30T06:52:20;7.13;;;5.05;;
15240;SDS011;7723;52.170;9.978;2022-07-30T06:54:48;6.50;;;4.22;;
15240;SDS011;7723;52.170;9.978;2022-07-30T06:57:15;6.45;;;5.00;;
15240;SDS011;7723;52.170;9.978;2022-07-30T06:59:43;5.72;;;4.13;;
15240;SDS011;7723;52.170;9.978;2022-07-30T07:02:10;5.80;;;5.18;;
15240;SDS011;7723;52.170;9.978;2022-07-30T07:04:39;4.55;;;3.90;;
15240;SDS011;7723;52.170;9.978;2022-07-30T07:07:06;8.75;;;5.00;;
15240;SDS011;7723;52.170;9.978;2022-07-30T07:09:33;9.20;;;4.75;;
15240;SDS011;7723;52.170;9.978;2022-07-30T07:12:00;4.45;;;4.05;;
15240;SDS011;7723;52.170;9.978;2022-07-30T07:14:28;5.15;;;4.25;;
15240;SDS011;7723;52.170;9.978;2022-07-30T07:16:55;4.38;;;3.80;;
15240;SDS011;7723;52.170;9.978;2022-07-30T07:19:22;3.75;;;3.38;;
15240;SDS011;7723;52.170;9.978;2022-07-30T07:21:51;4.75;;;3.53;;
15240;SDS011;7723;52.170;9.978;2022-07-30T07:24:18;3.63;;;3.33;;
15240;SDS011;7723;52.170;9.978;2022-07-30T07:26:45;3.53;;;3.22;;
15240;SDS011;7723;52.170;9.978;2022-07-30T07:29:13;4.30;;;3.65;;
15240;SDS011;7723;52.170;9.978;2022-07-30T07:31:40;4.38;;;3.53;;
15240;SDS011;7723;52.170;9.978;2022-07-30T07:34:07;3.70;;;3.40;;
15240;SDS011;7723;52.170;9.978;2022-07-30T07:36:35;3.75;;;3.30;;
15240;SDS011;7723;52.170;9.978;2022-07-30T07:39:04;3.75;;;3.45;;
15240;SDS011;7723;52.170;9.978;2022-07-30T07:41:34;5.15;;;3.80;;
15240;SDS011;7723;52.170;9.978;2022-07-30T07:44:02;4.05;;;3.65;;
15240;SDS011;7723;52.170;9.978;2022-07-30T07:46:32;3.55;;;3.25;;
15240;SDS011;7723;52.170;9.978;2022-07-30T07:48:59;4.03;;;3.72;;
15240;SDS011;7723;52.170;9.978;2022-07-30T07:51:27;3.53;;;3.22;;
15240;SDS011;7723;52.170;9.978;2022-07-30T07:53:54;3.90;;;3.25;;
15240;SDS011;7723;52.170;9.978;2022-07-30T07:56:23;4.00;;;3.20;;
15240;SDS011;7723;52.170;9.978;2022-07-30T07:58:50;3.35;;;3.05;;
15240;SDS011;7723;52.170;9.978;2022-07-30T08:01:18;3.92;;;3.15;;
15240;SDS011;7723;52.170;9.978;2022-07-30T08:03:46;3.22;;;2.92;;
15240;SDS011;7723;52.170;9.978;2022-07-30T08:06:14;3.42;;;2.80;;
15240;SDS011;7723;52.170;9.978;2022-07-30T08:08:41;3.13;;;2.63;;
15240;SDS011;7723;52.170;9.978;2022-07-30T08:11:08;3.22;;;2.75;;
15240;SDS011;7723;52.170;9.978;2022-07-30T08:13:37;3.05;;;2.83;;
15240;SDS011;7723;52.170;9.978;2022-07-30T08:16:04;3.75;;;3.30;;
15240;SDS011;7723;52.170;9.978;2022-07-30T08:18:34;2.67;;;2.47;;
15240;SDS011;7723;52.170;9.978;2022-07-30T08:21:01;3.88;;;2.72;;
15240;SDS011;7723;52.170;9.978;2022-07-30T08:23:29;2.72;;;2.53;;
15240;SDS011;7723;52.170;9.978;2022-07-30T08:25:56;3.10;;;2.50;;
15240;SDS011;7723;52.170;9.978;2022-07-30T08:28:25;3.90;;;2.70;;
15240;SDS011;7723;52.170;9.978;2022-07-30T08:30:54;2.78;;;2.40;;
15240;SDS011;7723;52.170;9.978;2022-07-30T08:33:21;3.05;;;2.60;;
15240;SDS011;7723;52.170;9.978;2022-07-30T08:35:49;2.85;;;2.60;;
15240;SDS011;7723;52.170;9.978;2022-07-30T08:38:16;3.00;;;2.65;;
15240;SDS011;7723;52.170;9.978;2022-07-30T08:40:43;2.92;;;2.65;;
15240;SDS011;7723;52.170;9.978;2022-07-30T08:43:11;2.72;;;2.53;;
15240;SDS011;7723;52.170;9.978;2022-07-30T08:45:38;4.07;;;2.92;;
15240;SDS011;7723;52.170;9.978;2022-07-30T08:48:08;4.90;;;3.45;;
15240;SDS011;7723;52.170;9.978;2022-07-30T08:50:36;3.30;;;2.90;;
15240;SDS011;7723;52.170;9.978;2022-07-30T08:53:04;3.83;;;3.10;;
15240;SDS011;7723;52.170;9.978;2022-07-30T08:55:32;3.33;;;3.08;;
15240;SDS011;7723;52.170;9.978;2022-07-30T08:57:59;2.67;;;2.47;;
15240;SDS011;7723;52.170;9.978;2022-07-30T09:00:27;4.15;;;2.50;;
15240;SDS011;7723;52.170;9.978;2022-07-30T09:02:56;4.25;;;2.97;;
15240;SDS011;7723;52.170;9.978;2022-07-30T09:05:24;2.90;;;2.60;;
15240;SDS011;7723;52.170;9.978;2022-07-30T09:07:52;3.13;;;2.80;;
15240;SDS011;7723;52.170;9.978;2022-07-30T09:10:19;3.88;;;3.00;;
15240;SDS011;7723;52.170;9.978;2022-07-30T09:12:50;4.43;;;2.80;;
15240;SDS011;7723;52.170;9.978;2022-07-30T09:15:18;2.80;;;2.60;;
15240;SDS011;7723;52.170;9.978;2022-07-30T09:17:50;3.35;;;2.67;;
15240;SDS011;7723;52.170;9.978;2022-07-30T09:20:19;2.53;;;2.33;;
15240;SDS011;7723;52.170;9.978;2022-07-30T09:22:50;2.35;;;2.00;;
15240;SDS011;7723;52.170;9.978;2022-07-30T09:25:34;2.78;;;2.58;;
15240;SDS011;7723;52.170;9.978;2022-07-30T09:28:04;2.53;;;2.33;;
15240;SDS011;7723;52.170;9.978;2022-07-30T09:30:46;2.85;;;2.60;;
15240;SDS011;7723;52.170;9.978;2022-07-30T09:33:14;2.28;;;2.10;;
15240;SDS011;7723;52.170;9.978;2022-07-30T09:35:57;3.13;;;2.80;;
15240;SDS011;7723;52.170;9.978;2022-07-30T09:38:25;3.30;;;2.70;;
15240;SDS011;7723;52.170;9.978;2022-07-30T09:40:54;2.83;;;2.63;;
15240;SDS011;7723;52.170;9.978;2022-07-30T09:43:22;3.10;;;2.78;;
15240;SDS011;7723;52.170;9.978;2022-07-30T09:45:50;2.65;;;2.45;;
15240;SDS011;7723;52.170;9.978;2022-07-30T09:48:19;2.75;;;2.13;;
15240;SDS011;7723;52.170;9.978;2022-07-30T09:50:48;2.95;;;2.08;;
15240;SDS011;7723;52.170;9.978;2022-07-30T09:53:16;2.70;;;2.50;;
15240;SDS011;7723;52.170;9.978;2022-07-30T09:55:48;4.20;;;2.67;;
15240;SDS011;7723;52.170;9.978;2022-07-30T09:58:15;3.85;;;2.30;;
15240;SDS011;7723;52.170;9.978;2022-07-30T10:00:43;2.38;;;2.15;;
15240;SDS011;7723;52.170;9.978;2022-07-30T10:03:14;2.30;;;2.20;;
15240;SDS011;7723;52.170;9.978;2022-07-30T10:05:48;2.60;;;2.25;;
15240;SDS011;7723;52.170;9.978;2022-07-30T10:08:16;3.45;;;2.40;;
15240;SDS011;7723;52.170;9.978;2022-07-30T10:10:44;2.50;;;2.30;;
15240;SDS011;7723;52.170;9.978;2022-07-30T10:13:15;2.80;;;2.20;;
15240;SDS011;7723;52.170;9.978;2022-07-30T10:15:45;2.10;;;1.90;;
15240;SDS011;7723;52.170;9.978;2022-07-30T10:18:14;2.70;;;2.28;;
15240;SDS011;7723;52.170;9.978;2022-07-30T10:20:42;2.60;;;2.40;;
15240;SDS011;7723;52.170;9.978;2022-07-30T10:23:10;2.50;;;2.25;;
15240;SDS011;7723;52.170;9.978;2022-07-30T10:25:38;2.03;;;1.88;;
15240;SDS011;7723;52.170;9.978;2022-07-30T10:28:05;2.45;;;2.25;;
15240;SDS011;7723;52.170;9.978;2022-07-30T10:30:35;3.50;;;1.90;;
15240;SDS011;7723;52.170;9.978;2022-07-30T10:33:02;2.13;;;2.00;;
15240;SDS011;7723;52.170;9.978;2022-07-30T10:35:31;2.22;;;2.03;;
15240;SDS011;7723;52.170;9.978;2022-07-30T10:37:59;2.97;;;2.13;;
15240;SDS011;7723;52.170;9.978;2022-07-30T10:40:28;3.10;;;2.13;;
15240;SDS011;7723;52.170;9.978;2022-07-30T10:43:05;2.53;;;2.33;;
15240;SDS011;7723;52.170;9.978;2022-07-30T10:46:05;2.08;;;1.98;;
15240;SDS011;7723;52.170;9.978;2022-07-30T10:48:40;2.25;;;2.05;;
15240;SDS011;7723;52.170;9.978;2022-07-30T10:51:07;4.32;;;2.15;;
15240;SDS011;7723;52.170;9.978;2022-07-30T10:53:35;2.20;;;2.00;;
15240;SDS011;7723;52.170;9.978;2022-07-30T10:56:10;2.42;;;2.10;;
15240;SDS011;7723;52.170;9.978;2022-07-30T10:59:02;2.33;;;2.10;;
15240;SDS011;7723;52.170;9.978;2022-07-30T11:04:36;2.35;;;2.15;;
15240;SDS011;7723;52.170;9.978;2022-07-30T11:09:54;2.20;;;2.00;;
15240;SDS011;7723;52.170;9.978;2022-07-30T11:15:20;2.17;;;1.60;;
15240;SDS011;7723;52.170;9.978;2022-07-30T11:18:00;2.40;;;2.10;;
15240;SDS011;7723;52.170;9.978;2022-07-30T11:20:29;2.88;;;2.40;;
15240;SDS011;7723;52.170;9.978;2022-07-30T11:26:02;2.80;;;1.80;;
15240;SDS011;7723;52.170;9.978;2022-07-30T11:28:34;1.90;;;1.80;;
15240;SDS011;7723;52.170;9.978;2022-07-30T11:37:07;1.83;;;1.73;;
15240;SDS011;7723;52.170;9.978;2022-07-30T11:42:34;2.25;;;1.80;;
15240;SDS011;7723;52.170;9.978;2022-07-30T11:45:18;2.53;;;2.10;;
15240;SDS011;7723;52.170;9.978;2022-07-30T11:47:54;4.15;;;2.05;;
15240;SDS011;7723;52.170;9.978;2022-07-30T11:50:25;2.17;;;2.00;;
15240;SDS011;7723;52.170;9.978;2022-07-30T11:52:56;2.00;;;1.90;;
15240;SDS011;7723;52.170;9.978;2022-07-30T11:55:25;1.83;;;1.70;;
15240;SDS011;7723;52.170;9.978;2022-07-30T11:57:54;1.77;;;1.67;;
15240;SDS011;7723;52.170;9.978;2022-07-30T12:00:22;2.30;;;2.10;;
15240;SDS011;7723;52.170;9.978;2022-07-30T12:02:50;2.35;;;1.90;;
15240;SDS011;7723;52.170;9.978;2022-07-30T12:05:26;2.35;;;2.15;;
15240;SDS011;7723;52.170;9.978;2022-07-30T12:07:56;2.30;;;2.05;;
15240;SDS011;7723;52.170;9.978;2022-07-30T12:10:24;2.72;;;1.98;;
15240;SDS011;7723;52.170;9.978;2022-07-30T12:12:51;2.25;;;1.90;;
15240;SDS011;7723;52.170;9.978;2022-07-30T12:15:28;2.10;;;1.90;;
15240;SDS011;7723;52.170;9.978;2022-07-30T12:17:57;1.55;;;1.45;;
15240;SDS011;7723;52.170;9.978;2022-07-30T12:20:27;2.33;;;1.80;;
15240;SDS011;7723;52.170;9.978;2022-07-30T12:22:55;3.17;;;2.17;;
15240;SDS011;7723;52.170;9.978;2022-07-30T12:25:23;2.28;;;2.08;;
15240;SDS011;7723;52.170;9.978;2022-07-30T12:27:50;2.42;;;2.20;;
15240;SDS011;7723;52.170;9.978;2022-07-30T12:30:18;1.90;;;1.80;;
15240;SDS011;7723;52.170;9.978;2022-07-30T12:32:46;2.65;;;2.45;;
15240;SDS011;7723;52.170;9.978;2022-07-30T12:35:13;2.90;;;2.70;;
15240;SDS011;7723;52.170;9.978;2022-07-30T12:37:43;3.85;;;2.35;;
15240;SDS011;7723;52.170;9.978;2022-07-30T12:40:28;2.63;;;2.42;;
15240;SDS011;7723;52.170;9.978;2022-07-30T12:42:56;2.53;;;2.20;;
15240;SDS011;7723;52.170;9.978;2022-07-30T12:45:27;2.70;;;2.50;;
15240;SDS011;7723;52.170;9.978;2022-07-30T12:47:55;2.00;;;1.90;;
15240;SDS011;7723;52.170;9.978;2022-07-30T12:50:24;2.47;;;2.05;;
15240;SDS011;7723;52.170;9.978;2022-07-30T12:52:53;2.50;;;2.30;;
15240;SDS011;7723;52.170;9.978;2022-07-30T12:55:28;1.75;;;1.65;;
15240;SDS011;7723;52.170;9.978;2022-07-30T12:57:57;2.45;;;2.25;;
15240;SDS011;7723;52.170;9.978;2022-07-30T13:00:27;2.17;;;1.98;;
15240;SDS011;7723;52.170;9.978;2022-07-30T13:02:56;2.30;;;2.10;;
15240;SDS011;7723;52.170;9.978;2022-07-30T13:08:14;1.98;;;1.88;;
15240;SDS011;7723;52.170;9.978;2022-07-30T13:10:54;2.28;;;2.08;;
15240;SDS011;7723;52.170;9.978;2022-07-30T13:13:22;2.17;;;2.03;;
15240;SDS011;7723;52.170;9.978;2022-07-30T13:15:58;2.88;;;2.13;;
15240;SDS011;7723;52.170;9.978;2022-07-30T13:18:27;2.33;;;2.13;;
15240;SDS011;7723;52.170;9.978;2022-07-30T13:20:56;2.30;;;2.10;;
15240;SDS011;7723;52.170;9.978;2022-07-30T13:23:25;2.55;;;2.35;;
15240;SDS011;7723;52.170;9.978;2022-07-30T13:25:54;2.33;;;2.13;;
15240;SDS011;7723;52.170;9.978;2022-07-30T13:28:21;2.58;;;2.35;;
15240;SDS011;7723;52.170;9.978;2022-07-30T13:30:49;2.50;;;2.30;;
15240;SDS011;7723;52.170;9.978;2022-07-30T13:33:16;3.13;;;2.83;;
15240;SDS011;7723;52.170;9.978;2022-07-30T13:35:43;4.10;;;3.70;;
15240;SDS011;7723;52.170;9.978;2022-07-30T13:38:11;2.63;;;2.42;;
15240;SDS011;7723;52.170;9.978;2022-07-30T13:40:41;3.22;;;2.95;;
15240;SDS011;7723;52.170;9.978;2022-07-30T13:43:08;2.60;;;2.40;;
15240;SDS011;7723;52.170;9.978;2022-07-30T13:45:35;2.60;;;2.40;;
15240;SDS011;7723;52.170;9.978;2022-07-30T13:48:03;2.88;;;2.58;;
15240;SDS011;7723;52.170;9.978;2022-07-30T13:50:30;5.60;;;4.07;;
15240;SDS011;7723;52.170;9.978;2022-07-30T13:52:57;6.72;;;5.03;;
15240;SDS011;7723;52.170;9.978;2022-07-30T13:55:25;8.38;;;7.55;;
15240;SDS011;7723;52.170;9.978;2022-07-30T13:57:53;5.80;;;3.38;;
15240;SDS011;7723;52.170;9.978;2022-07-30T14:00:21;3.25;;;2.95;;
15240;SDS011;7723;52.170;9.978;2022-07-30T14:02:49;4.32;;;2.72;;
15240;SDS011;7723;52.170;9.978;2022-07-30T14:05:16;3.08;;;2.88;;
15240;SDS011;7723;52.170;9.978;2022-07-30T14:07:43;2.65;;;2.45;;
15240;SDS011;7723;52.170;9.978;2022-07-30T14:10:11;5.28;;;2.78;;
15240;SDS011;7723;52.170;9.978;2022-07-30T14:12:38;3.20;;;2.90;;
15240;SDS011;7723;52.170;9.978;2022-07-30T14:15:07;3.00;;;2.70;;
15240;SDS011;7723;52.170;9.978;2022-07-30T14:17:35;2.92;;;2.60;;
15240;SDS011;7723;52.170;9.978;2022-07-30T14:20:03;3.17;;;2.83;;
15240;SDS011;7723;52.170;9.978;2022-07-30T14:22:31;2.97;;;2.78;;
15240;SDS011;7723;52.170;9.978;2022-07-30T14:24:58;2.97;;;2.67;;
15240;SDS011;7723;52.170;9.978;2022-07-30T14:27:25;2.58;;;2.38;;
15240;SDS011;7723;52.170;9.978;2022-07-30T14:29:53;2.95;;;2.40;;
15240;SDS011;7723;52.170;9.978;2022-07-30T14:32:21;2.30;;;2.10;;
15240;SDS011;7723;52.170;9.978;2022-07-30T14:34:48;3.47;;;3.00;;
15240;SDS011;7723;52.170;9.978;2022-07-30T14:37:16;2.97;;;2.53;;
15240;SDS011;7723;52.170;9.978;2022-07-30T14:39:43;2.42;;;2.28;;
15240;SDS011;7723;52.170;9.978;2022-07-30T14:42:10;2.45;;;2.25;;
15240;SDS011;7723;52.170;9.978;2022-07-30T14:44:38;2.70;;;2.50;;
15240;SDS011;7723;52.170;9.978;2022-07-30T14:47:05;2.78;;;2.58;;
15240;SDS011;7723;52.170;9.978;2022-07-30T14:49:34;4.35;;;3.40;;
15240;SDS011;7723;52.170;9.978;2022-07-30T14:52:12;4.32;;;3.15;;
15240;SDS011;7723;52.170;9.978;2022-07-30T14:54:39;3.38;;;2.95;;
15240;SDS011;7723;52.170;9.978;2022-07-30T14:57:07;3.97;;;3.10;;
15240;SDS011;7723;52.170;9.978;2022-07-30T14:59:34;3.13;;;2.83;;
15240;SDS011;7723;52.170;9.978;2022-07-30T15:02:01;3.25;;;2.95;;
15240;SDS011;7723;52.170;9.978;2022-07-30T15:04:29;4.97;;;2.92;;
15240;SDS011;7723;52.170;9.978;2022-07-30T15:06:58;5.32;;;3.00;;
15240;SDS011;7723;52.170;9.978;2022-07-30T15:09:25;2.85;;;2.55;;
15240;SDS011;7723;52.170;9.978;2022-07-30T15:11:52;3.53;;;3.22;;
15240;SDS011;7723;52.170;9.978;2022-07-30T15:14:20;3.13;;;2.83;;
15240;SDS011;7723;52.170;9.978;2022-07-30T15:16:47;4.75;;;2.97;;
15240;SDS011;7723;52.170;9.978;2022-07-30T15:19:15;3.28;;;2.97;;
15240;SDS011;7723;52.170;9.978;2022-07-30T15:21:42;3.30;;;3.10;;
15240;SDS011;7723;52.170;9.978;2022-07-30T15:24:11;5.43;;;3.72;;
15240;SDS011;7723;52.170;9.978;2022-07-30T15:26:38;3.95;;;3.22;;
15240;SDS011;7723;52.170;9.978;2022-07-30T15:29:05;4.55;;;3.67;;
15240;SDS011;7723;52.170;9.978;2022-07-30T15:31:33;5.88;;;3.53;;
15240;SDS011;7723;52.170;9.978;2022-07-30T15:34:00;4.20;;;3.80;;